Tupelo, Mississippi
Current Conditions -  °F | °C
As of 7:53 AM on Friday 31 Oct 2014 (Local Time) from KTUP Reporting Station
Clear Clear  
Wind Chill: 42°   Ceiling: Unl
Heat Index: 46°   Visibility: 10mi
Dew Point: 44°   Wind: 7mph
Humidity: 93%   Direction: 30°NNE
Pressure: 29.99"   Gusts: NA
Location:  34.26°N, 88.71°W
Report Text: KTUP 311253Z 03006KT 10SM CLR 08/07 A2999 RMK AO2 SLP156 T00780067
Loading
Personal Weather Stations






























Interactive Weather Map New forecast layout! Learn more

10-Day Weather Forecast

Advertisements
Track Severe Weather on mobile